createdAt,value
2018-07-16T00:00:40.940Z,51.42
2018-07-16T00:01:44.244Z,51.49
2018-07-16T00:02:47.256Z,52.02
2018-07-16T00:03:50.654Z,51.64
2018-07-16T00:04:54.590Z,53.10
2018-07-16T00:05:57.524Z,53.09
2018-07-16T00:07:01.238Z,53.94
2018-07-16T00:08:04.246Z,55.06
2018-07-16T00:09:07.156Z,55.28
2018-07-16T00:10:10.181Z,54.30
2018-07-16T00:11:13.029Z,54.14
2018-07-16T00:12:16.064Z,53.66
2018-07-16T00:13:19.718Z,54.07
2018-07-16T00:14:22.991Z,54.27
2018-07-16T00:15:26.822Z,54.20
2018-07-16T00:16:29.941Z,53.22
2018-07-16T00:17:33.967Z,53.78
2018-07-16T00:18:38.000Z,53.02
2018-07-16T00:19:41.193Z,52.40
2018-07-16T00:20:44.061Z,53.34
2018-07-16T00:21:46.945Z,53.43
2018-07-16T00:22:49.780Z,52.51
2018-07-16T00:23:52.704Z,53.71
2018-07-16T00:24:55.951Z,54.03
2018-07-16T00:25:59.189Z,54.66
2018-07-16T00:27:02.040Z,55.88
2018-07-16T00:28:04.908Z,55.79
2018-07-16T00:29:07.755Z,56.73
2018-07-16T00:30:10.615Z,57.14
2018-07-16T00:31:13.468Z,57.27
2018-07-16T00:32:16.656Z,57.98
2018-07-16T00:33:19.512Z,58.58
2018-07-16T00:34:22.386Z,58.57
2018-07-16T00:35:25.254Z,57.73
2018-07-16T00:36:28.364Z,57.36
2018-07-16T00:37:32.168Z,56.54
2018-07-16T00:38:36.759Z,57.49
2018-07-16T00:39:39.629Z,57.02
2018-07-16T00:40:43.097Z,57.07
2018-07-16T00:41:46.491Z,57.99
2018-07-16T00:42:49.349Z,57.91
2018-07-16T00:43:53.672Z,57.43
2018-07-16T00:44:57.840Z,58.50
2018-07-16T00:46:00.668Z,58.40
2018-07-16T00:47:03.512Z,59.57
2018-07-16T00:48:06.400Z,59.52
2018-07-16T00:49:09.240Z,59.33
2018-07-16T00:50:12.076Z,58.94
2018-07-16T00:51:15.196Z,58.78
2018-07-16T00:52:18.043Z,58.48
2018-07-16T00:53:20.906Z,58.26
2018-07-16T00:54:23.789Z,57.54
2018-07-16T00:55:28.087Z,57.28
2018-07-16T00:56:33.216Z,57.19
2018-07-16T00:57:42.145Z,57.05
2018-07-16T00:58:48.309Z,56.70
2018-07-16T00:59:53.272Z,57.40
2018-07-16T01:00:59.532Z,57.81
2018-07-16T01:02:03.712Z,57.85
2018-07-16T01:03:06.841Z,57.16
2018-07-16T01:04:11.134Z,57.34
2018-07-16T01:05:14.368Z,57.28
2018-07-16T01:06:17.775Z,57.18
2018-07-16T01:07:20.575Z,56.28
2018-07-16T01:08:23.389Z,56.14
2018-07-16T01:09:26.226Z,56.74
2018-07-16T01:10:29.344Z,56.95
2018-07-16T01:11:32.201Z,57.17
2018-07-16T01:12:35.003Z,56.77
2018-07-16T01:13:37.829Z,56.46
2018-07-16T01:14:40.649Z,56.39
2018-07-16T01:15:43.465Z,56.36
2018-07-16T01:16:46.563Z,56.18
2018-07-16T01:17:50.286Z,57.01
2018-07-16T01:18:53.101Z,58.65
2018-07-16T01:19:55.907Z,59.92
2018-07-16T01:20:59.447Z,61.19
2018-07-16T01:22:02.278Z,61.80
2018-07-16T01:23:05.398Z,61.46
2018-07-16T01:24:08.245Z,60.86
2018-07-16T01:25:11.041Z,60.38
2018-07-16T01:26:14.707Z,59.87
2018-07-16T01:27:17.529Z,59.00
2018-07-16T01:28:20.346Z,59.12
2018-07-16T01:29:23.456Z,59.37
2018-07-16T01:30:26.270Z,59.13
2018-07-16T01:31:29.090Z,58.38
2018-07-16T01:32:31.960Z,58.46
2018-07-16T01:33:34.761Z,58.01
2018-07-16T01:34:37.600Z,58.38
2018-07-16T01:35:40.691Z,58.57
2018-07-16T01:36:43.536Z,57.65
2018-07-16T01:37:47.243Z,57.77
2018-07-16T01:38:50.049Z,58.40
2018-07-16T01:39:52.889Z,58.11
2018-07-16T01:40:55.678Z,58.44
2018-07-16T01:41:58.808Z,59.57
2018-07-16T01:43:01.630Z,60.43
2018-07-16T01:44:04.448Z,61.61
2018-07-16T01:45:07.268Z,61.05
2018-07-16T01:46:10.080Z,60.84
2018-07-16T01:47:12.871Z,61.00
2018-07-16T01:48:16.008Z,60.01
2018-07-16T01:49:18.849Z,59.26
2018-07-16T01:50:21.667Z,58.99
2018-07-16T01:51:24.476Z,59.68
2018-07-16T01:52:27.277Z,59.65
2018-07-16T01:53:30.156Z,59.61
2018-07-16T01:54:33.266Z,59.74
2018-07-16T01:55:36.899Z,60.93
2018-07-16T01:56:39.685Z,60.52
2018-07-16T01:57:42.505Z,59.84
2018-07-16T01:58:51.322Z,60.07
2018-07-16T01:59:54.184Z,60.33
2018-07-16T02:00:57.878Z,60.09
2018-07-16T02:02:00.730Z,60.29
2018-07-16T02:03:03.544Z,60.46
2018-07-16T02:04:06.378Z,59.99
2018-07-16T02:05:09.187Z,59.76
2018-07-16T02:06:12.736Z,60.67
2018-07-16T02:07:16.804Z,60.25
2018-07-16T02:08:20.019Z,60.62
2018-07-16T02:09:22.872Z,61.48
2018-07-16T02:10:25.837Z,61.51
2018-07-16T02:11:28.780Z,62.11
2018-07-16T02:12:32.390Z,61.82
2018-07-16T02:13:36.541Z,63.07
2018-07-16T02:14:39.553Z,63.04
2018-07-16T02:15:42.527Z,62.37
2018-07-16T02:16:45.455Z,63.19
2018-07-16T02:17:48.280Z,63.53
2018-07-16T02:18:51.204Z,63.37
2018-07-16T02:19:54.908Z,63.08
2018-07-16T02:20:57.866Z,63.52
2018-07-16T02:22:00.664Z,64.09
2018-07-16T02:23:03.531Z,63.99
2018-07-16T02:24:06.407Z,64.15
2018-07-16T02:25:10.440Z,63.82
2018-07-16T02:26:13.740Z,64.21
2018-07-16T02:27:16.723Z,64.27
2018-07-16T02:28:19.690Z,63.25
2018-07-16T02:29:23.507Z,63.39
2018-07-16T02:30:26.476Z,62.39
2018-07-16T02:31:29.333Z,62.25
2018-07-16T02:32:32.912Z,61.96
2018-07-16T02:33:35.891Z,61.87
2018-07-16T02:34:38.750Z,61.78
2018-07-16T02:35:41.799Z,61.56
2018-07-16T02:36:44.643Z,61.36
2018-07-16T02:37:47.502Z,61.35
2018-07-16T02:38:51.198Z,61.25
2018-07-16T02:39:54.016Z,61.71
2018-07-16T02:40:56.835Z,61.94
2018-07-16T02:42:00.067Z,61.30
2018-07-16T02:43:02.989Z,61.14
2018-07-16T02:44:05.881Z,60.82
2018-07-16T02:45:09.084Z,60.71
2018-07-16T02:46:13.192Z,60.64
2018-07-16T02:47:16.028Z,61.33
2018-07-16T02:48:18.863Z,61.45
2018-07-16T02:49:22.246Z,61.58
2018-07-16T02:50:25.129Z,61.74
2018-07-16T02:51:28.234Z,61.22
2018-07-16T02:52:32.065Z,61.33
2018-07-16T02:53:34.899Z,61.23
2018-07-16T02:54:37.743Z,62.39
2018-07-16T02:55:41.845Z,63.54
2018-07-16T02:56:47.735Z,62.35
2018-07-16T02:57:51.534Z,62.97
2018-07-16T02:58:54.389Z,62.86
2018-07-16T02:59:57.888Z,62.70
2018-07-16T03:01:01.628Z,62.23
2018-07-16T03:02:04.695Z,63.07
2018-07-16T03:03:07.565Z,62.15
2018-07-16T03:04:10.787Z,62.97
2018-07-16T03:05:16.621Z,62.34
2018-07-16T03:06:19.465Z,62.94
2018-07-16T03:07:22.575Z,62.38
2018-07-16T03:08:25.429Z,63.23
2018-07-16T03:09:32.407Z,62.89
2018-07-16T03:10:35.537Z,63.45
2018-07-16T03:11:38.363Z,63.37
2018-07-16T03:12:41.466Z,63.27
2018-07-16T03:13:46.180Z,62.51
2018-07-16T03:14:49.955Z,62.45
2018-07-16T03:15:53.023Z,63.64
2018-07-16T03:16:56.652Z,63.90
2018-07-16T03:17:59.564Z,63.57
2018-07-16T03:19:02.954Z,64.46
2018-07-16T03:20:05.819Z,63.89
2018-07-16T03:21:08.858Z,64.34
2018-07-16T03:22:11.829Z,63.73
2018-07-16T03:23:15.692Z,64.44
2018-07-16T03:24:18.701Z,63.35
2018-07-16T03:25:21.729Z,63.20
2018-07-16T03:26:24.816Z,63.66
2018-07-16T03:27:27.671Z,62.57
2018-07-16T03:28:30.500Z,63.37
2018-07-16T03:29:33.659Z,62.84
2018-07-16T03:30:36.488Z,63.87
2018-07-16T03:31:39.301Z,63.79
2018-07-16T03:32:42.122Z,64.19
2018-07-16T03:33:46.012Z,64.91
2018-07-16T03:34:49.053Z,65.19
2018-07-16T03:35:52.195Z,64.15
2018-07-16T03:36:55.009Z,64.63
2018-07-16T03:37:57.827Z,64.08
2018-07-16T03:39:00.657Z,63.47
2018-07-16T03:40:03.499Z,64.10
2018-07-16T03:41:06.560Z,63.37
2018-07-16T03:42:09.708Z,63.90
2018-07-16T03:43:12.596Z,63.82
2018-07-16T03:44:15.482Z,63.85
2018-07-16T03:45:18.317Z,64.54
2018-07-16T03:46:21.121Z,64.09
2018-07-16T03:47:23.930Z,64.24
2018-07-16T03:48:27.111Z,63.14
2018-07-16T03:49:29.941Z,64.03
2018-07-16T03:50:32.800Z,63.03
2018-07-16T03:51:35.708Z,62.75
2018-07-16T03:52:38.554Z,63.50
2018-07-16T03:53:41.450Z,62.99
2018-07-16T03:54:44.571Z,63.24
2018-07-16T03:55:47.429Z,63.73
2018-07-16T03:56:50.278Z,63.47
2018-07-16T03:57:53.103Z,62.59
2018-07-16T03:58:55.969Z,62.52
2018-07-16T03:59:58.829Z,62.93
2018-07-16T04:01:02.031Z,63.71
2018-07-16T04:02:04.870Z,63.12
2018-07-16T04:03:07.730Z,63.13
2018-07-16T04:04:10.550Z,63.07
2018-07-16T04:05:13.381Z,62.62
2018-07-16T04:06:16.211Z,62.22
2018-07-16T04:07:20.979Z,62.42
2018-07-16T04:08:24.768Z,62.15
2018-07-16T04:09:28.106Z,62.19
2018-07-16T04:10:33.227Z,62.39
2018-07-16T04:11:36.080Z,62.61
2018-07-16T04:12:39.064Z,62.41
2018-07-16T04:13:42.275Z,62.07
2018-07-16T04:14:45.083Z,62.39
2018-07-16T04:15:47.921Z,61.12
2018-07-16T04:16:50.770Z,60.93
2018-07-16T04:17:53.595Z,61.22
2018-07-16T04:18:56.429Z,61.32
2018-07-16T04:19:59.767Z,61.74
2018-07-16T04:21:02.788Z,61.01
2018-07-16T04:22:06.512Z,61.02
2018-07-16T04:23:09.478Z,60.81
2018-07-16T04:24:12.472Z,61.76
2018-07-16T04:25:15.354Z,61.68
2018-07-16T04:26:18.665Z,61.47
2018-07-16T04:27:21.577Z,62.01
2018-07-16T04:28:24.779Z,61.29
2018-07-16T04:29:27.825Z,61.13
2018-07-16T04:30:31.567Z,62.15
2018-07-16T04:31:40.861Z,61.37
2018-07-16T04:32:43.677Z,61.99
2018-07-16T04:33:46.507Z,63.44
2018-07-16T04:34:49.365Z,64.47
2018-07-16T04:37:06.809Z,63.71
2018-07-16T04:38:09.991Z,62.95
2018-07-16T04:39:12.813Z,62.64
2018-07-16T04:40:15.635Z,62.33
2018-07-16T04:41:18.531Z,62.48
2018-07-16T04:42:22.234Z,62.63
2018-07-16T04:43:25.100Z,63.56
2018-07-16T04:44:28.350Z,63.71
2018-07-16T04:45:31.172Z,63.31
2018-07-16T04:46:34.674Z,63.62
2018-07-16T04:47:37.550Z,63.65
2018-07-16T04:48:40.404Z,63.34
2018-07-16T04:49:43.293Z,64.49
2018-07-16T04:50:47.310Z,64.08
2018-07-16T04:51:50.209Z,63.97
2018-07-16T04:52:53.112Z,64.48
2018-07-16T04:53:55.951Z,63.48
2018-07-16T04:54:59.587Z,63.81
2018-07-16T04:56:02.466Z,63.80
2018-07-16T04:57:05.640Z,63.47
2018-07-16T04:58:08.471Z,62.87
2018-07-16T04:59:11.320Z,64.15
2018-07-16T05:00:14.150Z,63.15
2018-07-16T05:01:17.609Z,63.00
2018-07-16T05:02:20.538Z,63.56
2018-07-16T05:03:23.704Z,64.40
2018-07-16T05:04:26.553Z,64.43
2018-07-16T05:05:29.391Z,64.72
2018-07-16T05:06:32.241Z,64.17
2018-07-16T05:07:35.131Z,63.78
2018-07-16T05:08:37.993Z,64.13
2018-07-16T05:09:41.146Z,63.36
2018-07-16T05:10:44.033Z,63.92
2018-07-16T05:11:46.861Z,63.71
2018-07-16T05:12:49.717Z,63.09
2018-07-16T05:13:56.469Z,62.89
2018-07-16T05:14:59.568Z,62.73
2018-07-16T05:16:02.703Z,63.05
2018-07-16T05:17:05.524Z,63.04
2018-07-16T05:18:08.375Z,62.85
2018-07-16T05:19:11.312Z,63.12
2018-07-16T05:20:14.259Z,62.57
2018-07-16T05:21:17.073Z,63.34
2018-07-16T05:22:20.416Z,63.21
2018-07-16T05:23:23.302Z,62.63
2018-07-16T05:24:26.201Z,63.52
2018-07-16T05:25:29.079Z,63.37
2018-07-16T05:26:31.944Z,63.49
2018-07-16T05:27:34.832Z,63.72
2018-07-16T05:28:38.120Z,63.87
2018-07-16T05:29:40.965Z,62.65
2018-07-16T05:30:43.843Z,62.44
2018-07-16T05:31:46.757Z,62.25
2018-07-16T05:32:49.658Z,62.61
2018-07-16T05:33:52.548Z,61.80
2018-07-16T05:34:55.711Z,62.04
2018-07-16T05:35:58.548Z,62.71
2018-07-16T05:37:01.462Z,62.82
2018-07-16T05:38:04.359Z,63.72
2018-07-16T05:39:07.462Z,64.74
2018-07-16T05:40:10.307Z,64.43
2018-07-16T05:41:13.455Z,63.82
2018-07-16T05:42:16.308Z,63.96
2018-07-16T05:43:19.218Z,64.18
2018-07-16T05:44:22.098Z,64.17
2018-07-16T05:45:24.971Z,63.64
2018-07-16T05:46:27.788Z,62.65
2018-07-16T05:47:31.087Z,61.84
2018-07-16T05:48:35.557Z,62.23
2018-07-16T05:49:38.413Z,62.16
2018-07-16T05:50:41.333Z,61.79
2018-07-16T05:51:44.162Z,61.53
2018-07-16T05:52:47.027Z,61.92
2018-07-16T05:53:50.243Z,62.03
2018-07-16T05:54:53.071Z,62.28
2018-07-16T05:55:57.628Z,61.47
2018-07-16T05:57:00.480Z,61.15
2018-07-16T05:58:03.360Z,61.36
2018-07-16T05:59:08.287Z,61.20
2018-07-16T06:00:11.473Z,60.65
2018-07-16T06:01:15.476Z,60.93
2018-07-16T06:02:19.086Z,61.40
2018-07-16T06:03:22.507Z,59.87
2018-07-16T06:04:25.380Z,60.43
2018-07-16T06:05:28.228Z,59.27
2018-07-16T06:06:31.722Z,59.47
2018-07-16T06:07:34.598Z,60.23
2018-07-16T06:08:37.523Z,59.81
2018-07-16T06:09:40.660Z,59.16
2018-07-16T06:10:43.523Z,59.78
2018-07-16T06:11:46.398Z,58.87
2018-07-16T06:12:49.541Z,58.95
2018-07-16T06:13:52.469Z,58.07
2018-07-16T06:14:56.486Z,56.90
2018-07-16T06:15:59.755Z,57.77
2018-07-16T06:17:02.626Z,57.37
2018-07-16T06:18:05.487Z,57.34
2018-07-16T06:19:08.711Z,56.68
2018-07-16T06:20:13.458Z,56.90
2018-07-16T06:21:16.314Z,57.38
2018-07-16T06:22:19.172Z,56.12
2018-07-16T06:23:22.042Z,56.62
2018-07-16T06:24:24.902Z,56.50
2018-07-16T06:25:28.216Z,56.31
2018-07-16T06:26:31.648Z,57.12
2018-07-16T06:27:34.470Z,56.34
2018-07-16T06:28:38.373Z,56.26
2018-07-16T06:29:41.201Z,55.63
2018-07-16T06:30:44.824Z,56.04
2018-07-16T06:31:48.578Z,55.64
2018-07-16T06:32:52.936Z,55.68
2018-07-16T06:33:55.805Z,55.57
2018-07-16T06:34:58.685Z,54.87
2018-07-16T06:36:01.514Z,55.24
2018-07-16T06:37:04.648Z,54.13
2018-07-16T06:38:08.865Z,54.98
2018-07-16T06:39:11.724Z,54.84
2018-07-16T06:40:14.738Z,54.20
2018-07-16T06:41:17.736Z,54.68
2018-07-16T06:42:20.435Z,54.84
2018-07-16T06:43:23.317Z,54.93
2018-07-16T06:44:26.477Z,54.69
2018-07-16T06:45:29.318Z,54.46
2018-07-16T06:46:32.344Z,53.64
2018-07-16T06:47:35.217Z,53.47
2018-07-16T06:48:38.095Z,52.99
2018-07-16T06:49:41.004Z,52.13
2018-07-16T06:50:44.294Z,51.10
2018-07-16T06:51:48.113Z,51.09
2018-07-16T06:52:50.987Z,51.81
2018-07-16T06:53:53.906Z,51.89
2018-07-16T06:54:56.785Z,50.55
2018-07-16T06:55:59.710Z,50.74
2018-07-16T06:57:04.182Z,49.35
2018-07-16T06:58:07.241Z,49.50
2018-07-16T06:59:11.204Z,49.05
2018-07-16T07:00:14.079Z,49.85
2018-07-16T07:01:17.555Z,48.33
2018-07-16T07:02:20.443Z,49.65
2018-07-16T07:03:24.409Z,48.45
2018-07-16T07:04:28.054Z,48.64
2018-07-16T07:05:30.937Z,48.37
2018-07-16T07:06:33.806Z,48.27
2018-07-16T07:07:36.846Z,48.80
2018-07-16T07:08:39.729Z,48.23
2018-07-16T07:09:42.940Z,47.62
2018-07-16T07:10:45.774Z,47.45
2018-07-16T07:11:48.740Z,48.42
2018-07-16T07:12:51.643Z,47.97
2018-07-16T07:13:54.883Z,48.36
2018-07-16T07:14:57.733Z,47.79
2018-07-16T07:16:01.221Z,47.43
2018-07-16T07:17:04.152Z,47.44
2018-07-16T07:18:07.101Z,48.22
2018-07-16T07:19:10.897Z,47.50
2018-07-16T07:20:13.772Z,47.68
2018-07-16T07:21:16.763Z,47.07
2018-07-16T07:22:20.093Z,47.05
2018-07-16T07:24:34.413Z,45.89
2018-07-16T07:25:37.408Z,45.63
2018-07-16T07:26:40.186Z,46.40
2018-07-16T07:27:43.236Z,45.94
2018-07-16T07:28:47.019Z,45.37
2018-07-16T07:29:49.886Z,44.64
2018-07-16T07:30:52.730Z,44.87
2018-07-16T07:31:56.591Z,44.21
2018-07-16T07:32:59.475Z,44.73
2018-07-16T07:34:04.104Z,44.92
2018-07-16T07:35:08.291Z,44.84
2018-07-16T07:36:11.186Z,44.04
2018-07-16T07:37:14.259Z,43.79
2018-07-16T07:38:17.785Z,43.77
2018-07-16T07:39:21.204Z,44.20
2018-07-16T07:40:26.290Z,44.48
2018-07-16T07:41:29.379Z,44.02
2018-07-16T07:42:33.225Z,44.16
2018-07-16T07:43:36.103Z,42.83
2018-07-16T07:44:39.544Z,42.42
2018-07-16T07:45:43.389Z,43.54
2018-07-16T07:46:47.242Z,42.51
2018-07-16T07:47:53.499Z,43.11
2018-07-16T07:48:56.359Z,43.32
2018-07-16T07:49:59.245Z,43.80
2018-07-16T07:51:02.121Z,43.42
2018-07-16T07:52:04.940Z,43.03
2018-07-16T07:53:08.596Z,43.71
2018-07-16T07:54:11.921Z,44.25
2018-07-16T07:55:15.473Z,42.18
2018-07-16T07:56:18.502Z,41.68
2018-07-16T07:57:21.566Z,41.86
2018-07-16T07:58:26.678Z,41.33
2018-07-16T07:59:30.161Z,41.07
2018-07-16T08:00:34.254Z,41.25
2018-07-16T08:01:39.074Z,42.45
2018-07-16T08:02:41.951Z,42.33
2018-07-16T08:03:44.825Z,41.34
2018-07-16T08:04:48.541Z,41.71
2018-07-16T08:05:56.277Z,41.36
2018-07-16T08:07:04.409Z,40.98
2018-07-16T08:08:07.324Z,41.25
2018-07-16T08:09:10.181Z,41.57
2018-07-16T08:10:13.735Z,40.82
2018-07-16T08:11:16.635Z,40.61
2018-07-16T08:12:19.525Z,40.30
2018-07-16T08:13:22.680Z,40.32
2018-07-16T08:14:25.581Z,41.14
2018-07-16T08:15:28.821Z,40.51
2018-07-16T08:16:34.126Z,40.76
2018-07-16T08:17:37.286Z,40.28
2018-07-16T08:18:42.690Z,39.96
2018-07-16T08:19:49.447Z,40.00
2018-07-16T08:20:53.532Z,40.04
2018-07-16T08:21:59.479Z,38.79
2018-07-16T08:23:03.339Z,38.27
2018-07-16T08:24:06.265Z,38.44
2018-07-16T08:25:10.811Z,38.92
2018-07-16T08:26:15.641Z,38.59
2018-07-16T08:27:18.495Z,38.21
2018-07-16T08:28:21.793Z,38.64
2018-07-16T08:29:26.002Z,37.34
2018-07-16T08:30:28.916Z,37.95
2018-07-16T08:31:31.825Z,37.90
2018-07-16T08:32:35.177Z,37.89
2018-07-16T08:33:38.265Z,37.07
2018-07-16T08:34:41.192Z,38.05
2018-07-16T08:35:44.119Z,38.71
2018-07-16T08:36:47.583Z,38.31
2018-07-16T08:37:51.351Z,37.54
2018-07-16T08:38:56.468Z,37.33
2018-07-16T08:39:59.394Z,37.28
2018-07-16T08:41:02.243Z,38.03
2018-07-16T08:42:06.118Z,38.55
2018-07-16T08:43:09.022Z,37.30
2018-07-16T08:44:12.457Z,36.96
2018-07-16T08:45:16.615Z,37.09
2018-07-16T08:46:19.727Z,36.73
2018-07-16T08:47:23.723Z,36.23
2018-07-16T08:48:26.588Z,35.90
2018-07-16T08:49:29.493Z,35.88
2018-07-16T08:50:33.138Z,34.91
2018-07-16T08:51:36.381Z,35.36
2018-07-16T08:52:39.281Z,35.31
2018-07-16T08:53:42.238Z,35.83
2018-07-16T08:54:45.251Z,35.49
2018-07-16T08:55:49.718Z,35.06
2018-07-16T08:56:54.449Z,35.63
2018-07-16T08:57:57.608Z,36.61
2018-07-16T08:59:01.362Z,36.02
2018-07-16T09:00:05.614Z,37.08
2018-07-16T09:01:10.012Z,37.05
2018-07-16T09:02:41.717Z,36.43
2018-07-16T09:03:48.799Z,35.79
2018-07-16T09:04:52.114Z,35.46
2018-07-16T09:06:01.910Z,35.57
2018-07-16T09:07:04.765Z,37.17
2018-07-16T09:08:07.663Z,37.42
2018-07-16T09:09:10.488Z,36.47
2018-07-16T09:10:13.681Z,35.81
2018-07-16T09:11:16.630Z,35.76
2018-07-16T09:12:19.789Z,35.57
2018-07-16T09:13:22.870Z,35.50
2018-07-16T09:14:26.140Z,34.95
2018-07-16T09:15:28.992Z,35.39
2018-07-16T09:16:33.282Z,35.17
2018-07-16T09:17:36.787Z,35.72
2018-07-16T09:18:42.919Z,34.85
2018-07-16T09:19:46.627Z,36.00
2018-07-16T09:20:50.491Z,35.96
2018-07-16T09:21:55.092Z,36.08
2018-07-16T09:22:58.952Z,35.62
2018-07-16T09:24:01.812Z,34.88
2018-07-16T09:25:05.984Z,34.71
2018-07-16T09:26:08.861Z,34.29
2018-07-16T09:27:14.159Z,33.80
2018-07-16T09:28:18.193Z,33.28
2018-07-16T09:29:22.133Z,33.18
2018-07-16T09:30:25.798Z,33.71
2018-07-16T09:31:29.453Z,34.78
2018-07-16T09:32:32.363Z,34.92
2018-07-16T09:33:35.773Z,34.47
2018-07-16T09:34:42.842Z,34.33
2018-07-16T09:35:46.975Z,33.96
2018-07-16T09:37:03.454Z,34.08
2018-07-16T09:38:07.221Z,33.62
2018-07-16T09:39:10.490Z,33.62
2018-07-16T09:40:13.700Z,35.11
2018-07-16T09:41:18.027Z,34.01
2018-07-16T09:42:21.585Z,34.02
2018-07-16T09:43:24.421Z,34.72
2018-07-16T09:44:27.960Z,33.58
2018-07-16T09:45:30.993Z,33.75
2018-07-16T09:46:35.377Z,33.01
2018-07-16T09:47:41.795Z,32.96
2018-07-16T09:48:45.491Z,33.45
2018-07-16T09:49:48.487Z,32.61
2018-07-16T09:50:52.351Z,31.94
2018-07-16T09:51:56.564Z,32.60
2018-07-16T09:53:00.868Z,32.40
2018-07-16T09:54:04.283Z,32.88
2018-07-16T09:55:07.424Z,31.58
2018-07-16T09:56:13.751Z,31.65
2018-07-16T09:57:16.684Z,31.47
2018-07-16T09:58:19.563Z,31.49
2018-07-16T09:59:26.042Z,32.42
2018-07-16T10:00:39.364Z,33.00
2018-07-16T10:01:45.451Z,32.71
2018-07-16T10:02:48.964Z,32.35
2018-07-16T10:03:52.580Z,32.93
2018-07-16T10:04:55.823Z,32.09
2018-07-16T10:05:59.484Z,31.63
2018-07-16T10:07:03.596Z,31.40
2018-07-16T10:08:07.157Z,30.95
2018-07-16T10:09:10.643Z,31.35
2018-07-16T10:10:13.848Z,31.02
2018-07-16T10:11:22.197Z,32.17
2018-07-16T10:12:27.631Z,32.24
2018-07-16T10:13:32.475Z,31.67
2018-07-16T10:14:36.512Z,31.15
2018-07-16T10:18:07.021Z,29.86
2018-07-16T10:19:10.728Z,29.57
2018-07-16T10:20:15.502Z,31.18
2018-07-16T10:21:20.676Z,30.50
2018-07-16T10:22:24.155Z,31.32
2018-07-16T10:23:27.011Z,30.38
2018-07-16T10:24:30.108Z,31.14
2018-07-16T10:25:34.563Z,30.36
2018-07-16T10:26:37.950Z,29.97
2018-07-16T10:27:45.396Z,30.30
2018-07-16T10:28:48.941Z,31.05
2018-07-16T10:29:51.799Z,31.19
2018-07-16T10:30:54.677Z,30.59
2018-07-16T10:32:00.319Z,31.20
2018-07-16T10:33:03.291Z,30.12
2018-07-16T10:34:06.131Z,30.36
2018-07-16T10:35:08.969Z,30.04
2018-07-16T10:36:11.861Z,29.31
2018-07-16T10:37:14.803Z,30.07
2018-07-16T10:38:18.092Z,30.23
2018-07-16T10:39:22.374Z,29.32
2018-07-16T10:40:26.450Z,30.45
2018-07-16T10:41:29.331Z,30.79
2018-07-16T10:42:32.172Z,30.78
2018-07-16T10:43:36.612Z,30.66
2018-07-16T10:44:39.492Z,31.07
2018-07-16T10:45:46.614Z,29.54
2018-07-16T10:46:49.480Z,29.83
2018-07-16T10:47:54.144Z,30.84
2018-07-16T10:48:57.026Z,29.34
2018-07-16T10:49:59.940Z,30.28
2018-07-16T10:51:02.859Z,29.04
2018-07-16T10:52:06.260Z,30.17
2018-07-16T10:53:10.985Z,30.61
2018-07-16T10:54:16.342Z,30.24
2018-07-16T10:55:20.895Z,29.63
2018-07-16T10:56:23.828Z,30.71
2018-07-16T10:57:26.668Z,30.06
2018-07-16T10:58:29.516Z,28.88
2018-07-16T10:59:33.199Z,28.81
2018-07-16T11:00:36.309Z,29.77
2018-07-16T11:01:39.153Z,29.79
2018-07-16T11:02:42.016Z,29.04
2018-07-16T11:03:45.430Z,29.03
2018-07-16T11:04:48.319Z,29.03
2018-07-16T11:05:51.290Z,30.40
2018-07-16T11:06:55.069Z,30.52
2018-07-16T11:07:58.643Z,30.41
2018-07-16T11:09:03.229Z,31.15
2018-07-16T11:10:06.455Z,31.20
2018-07-16T11:11:09.432Z,31.63
2018-07-16T11:12:12.300Z,30.47
2018-07-16T11:13:16.165Z,29.66
2018-07-16T11:14:19.552Z,28.89
2018-07-16T11:15:23.263Z,29.42
2018-07-16T11:16:26.982Z,28.57
2018-07-16T11:17:29.932Z,27.76
2018-07-16T11:18:32.804Z,29.27
2018-07-16T11:19:36.255Z,29.86
2018-07-16T11:20:39.131Z,30.96
2018-07-16T11:21:45.654Z,30.05
2018-07-16T11:22:48.950Z,31.58
2018-07-16T11:23:52.450Z,31.24
2018-07-16T11:24:57.766Z,32.58
2018-07-16T11:26:07.471Z,32.43
2018-07-16T11:27:10.380Z,32.38
2018-07-16T11:28:15.580Z,32.81
2018-07-16T11:29:19.806Z,31.77
2018-07-16T11:30:22.664Z,32.59
2018-07-16T11:31:26.140Z,31.98
2018-07-16T11:32:29.505Z,32.13
2018-07-16T11:33:32.639Z,31.71
2018-07-16T11:34:37.215Z,31.81
2018-07-16T11:35:42.098Z,31.19
2018-07-16T11:36:45.917Z,31.26
2018-07-16T11:37:49.445Z,31.01
2018-07-16T11:38:52.628Z,32.10
2018-07-16T11:39:56.231Z,32.21
2018-07-16T11:41:00.099Z,31.65
2018-07-16T11:42:04.181Z,32.16
2018-07-16T11:43:07.840Z,32.16
2018-07-16T11:44:12.114Z,31.76
2018-07-16T11:45:16.646Z,32.42
2018-07-16T11:46:19.595Z,32.46
2018-07-16T11:47:24.051Z,31.45
2018-07-16T11:48:28.603Z,31.11
2018-07-16T11:49:31.550Z,31.66
2018-07-16T11:50:34.618Z,30.91
2018-07-16T11:51:38.630Z,31.20
2018-07-16T11:52:41.464Z,29.85
2018-07-16T11:53:46.430Z,29.60
2018-07-16T11:54:49.275Z,29.77
2018-07-16T11:55:52.815Z,29.88
2018-07-16T11:56:55.710Z,29.73
2018-07-16T11:59:07.959Z,31.17
2018-07-16T12:00:11.083Z,30.30
2018-07-16T12:01:14.768Z,31.18
2018-07-16T12:02:17.645Z,30.94
2018-07-16T12:03:20.794Z,32.06
2018-07-16T12:04:23.688Z,30.80
2018-07-16T12:05:26.509Z,29.95
2018-07-16T12:06:30.640Z,30.18
2018-07-16T12:07:34.941Z,30.40
2018-07-16T12:08:38.669Z,30.03
2018-07-16T12:09:41.527Z,29.81
2018-07-16T12:10:45.330Z,29.92
2018-07-16T12:11:48.293Z,30.13
2018-07-16T12:12:51.172Z,30.91
2018-07-16T12:13:54.883Z,30.35
2018-07-16T12:14:57.776Z,31.36
2018-07-16T12:16:00.733Z,29.67
2018-07-16T12:17:03.588Z,30.70
2018-07-16T12:18:06.871Z,29.80
2018-07-16T12:19:09.747Z,29.22
2018-07-16T12:20:12.562Z,29.47
2018-07-16T12:21:15.544Z,29.55
2018-07-16T12:22:18.680Z,29.61
2018-07-16T12:23:22.484Z,29.33
2018-07-16T12:24:25.761Z,29.73
2018-07-16T12:25:28.657Z,29.46
2018-07-16T12:26:31.837Z,28.03
2018-07-16T12:27:36.622Z,28.93
2018-07-16T12:28:39.452Z,28.40
2018-07-16T12:29:43.314Z,29.75
2018-07-16T12:30:46.843Z,29.72
2018-07-16T12:31:49.761Z,29.95
2018-07-16T12:32:53.963Z,28.72
2018-07-16T12:33:59.682Z,27.94
2018-07-16T12:35:02.559Z,28.25
2018-07-16T12:36:05.574Z,28.93
2018-07-16T12:37:09.752Z,29.07
2018-07-16T12:38:13.408Z,30.26
2018-07-16T12:39:16.223Z,29.66
2018-07-16T12:40:21.684Z,29.18
2018-07-16T12:41:25.613Z,29.99
2018-07-16T12:42:30.365Z,29.18
2018-07-16T12:43:34.264Z,30.14
2018-07-16T12:44:38.138Z,29.67
2018-07-16T12:45:41.267Z,30.03
2018-07-16T12:46:45.376Z,28.79
2018-07-16T12:47:48.235Z,29.29
2018-07-16T12:48:51.813Z,29.02
2018-07-16T12:49:55.902Z,30.13
2018-07-16T12:50:58.772Z,30.78
2018-07-16T12:52:01.991Z,30.39
2018-07-16T12:53:05.001Z,30.85
2018-07-16T12:54:07.917Z,31.52
2018-07-16T12:55:10.782Z,32.01
2018-07-16T12:56:17.875Z,32.33
2018-07-16T12:57:20.691Z,30.41
2018-07-16T12:58:23.577Z,30.42
2018-07-16T12:59:26.622Z,30.17
2018-07-16T13:00:30.790Z,30.18
2018-07-16T13:01:33.673Z,30.23
2018-07-16T13:02:37.228Z,30.72
2018-07-16T13:03:41.577Z,32.27
2018-07-16T13:04:44.460Z,32.68
2018-07-16T13:05:48.428Z,32.44
2018-07-16T13:06:51.305Z,32.18
2018-07-16T13:07:54.133Z,31.56
2018-07-16T13:08:57.515Z,31.73
2018-07-16T13:10:00.655Z,31.99
2018-07-16T13:11:03.582Z,32.28
2018-07-16T13:12:07.371Z,31.49
2018-07-16T13:13:12.296Z,30.58
2018-07-16T13:14:15.128Z,30.94
2018-07-16T13:15:18.404Z,31.39
2018-07-16T13:16:21.238Z,30.02
2018-07-16T13:17:24.470Z,29.87
2018-07-16T13:18:27.383Z,30.33
2018-07-16T13:19:30.301Z,29.34
2018-07-16T13:20:33.256Z,30.58
2018-07-16T13:21:36.456Z,30.17
2018-07-16T13:22:40.958Z,29.19
2018-07-16T13:23:43.827Z,30.00
2018-07-16T13:24:46.702Z,30.43
2018-07-16T13:25:51.450Z,29.86
2018-07-16T13:26:54.291Z,29.45
2018-07-16T13:27:57.451Z,29.20
2018-07-16T13:29:00.366Z,29.59
2018-07-16T13:30:03.693Z,29.98
2018-07-16T13:31:06.844Z,29.84
2018-07-16T13:32:09.762Z,30.06
2018-07-16T13:33:12.592Z,28.54
2018-07-16T13:34:15.789Z,29.78
2018-07-16T13:35:18.691Z,29.28
2018-07-16T13:36:21.627Z,29.52
2018-07-16T13:37:25.783Z,29.99
2018-07-16T13:38:28.662Z,29.60
2018-07-16T13:39:32.270Z,28.51
2018-07-16T13:40:36.370Z,28.52
2018-07-16T13:41:39.256Z,28.84
2018-07-16T13:42:42.221Z,28.23
2018-07-16T13:43:46.508Z,28.68